Time;durP1;ratioP1;P1;durP2;ratioP2;P2;SDS_P1;SDS_P2;PMS_P1;PMS_P2;Temp;Humidity;BMP_temperature;BMP_pressure;BME280_temperature;BME280_humidity;BME280_pressure;Samples;Min_cycle;Max_cycle;Signal;HPM_P1;HPM_P2
2022/10/08 00:00:14;;;;;;;9.30;2.08;;;;;;;;;;2086255;28;20025;-79
2022/10/08 00:01:33;;;;;;;13.32;2.40;;;;;;;;;;2077767;28;20022;-80
2022/10/08 00:02:52;;;;;;;13.13;2.10;;;;;;;;;;2084870;28;20025;-80
2022/10/08 00:04:11;;;;;;;6.32;2.08;;;;;;;;;;2077391;28;20420;-80
2022/10/08 00:05:30;;;;;;;7.47;1.65;;;;;;;;;;2074690;28;20038;-79
2022/10/08 00:06:49;;;;;;;6.45;2.13;;;;;;;;;;2084455;28;20033;-80
2022/10/08 00:08:08;;;;;;;8.43;2.08;;;;;;;;;;2087474;28;20521;-80
2022/10/08 00:09:27;;;;;;;6.88;2.00;;;;;;;;;;2074569;28;20289;-79
2022/10/08 00:10:53;;;;;;;11.55;2.30;;;;;;;;;;2082724;28;20033;-80
2022/10/08 00:12:12;;;;;;;5.82;1.80;;;;;;;;;;2087738;28;20112;-79
2022/10/08 00:13:41;;;;;;;12.85;2.38;;;;;;;;;;2078650;28;20108;-79
2022/10/08 00:15:00;;;;;;;6.75;1.80;;;;;;;;;;2084853;28;20036;-80
2022/10/08 00:16:24;;;;;;;8.52;1.90;;;;;;;;;;2077977;28;20100;-80
2022/10/08 00:17:43;;;;;;;6.82;1.55;;;;;;;;;;2084963;28;20502;-79
2022/10/08 00:19:12;;;;;;;10.30;2.53;;;;;;;;;;2085756;28;20120;-80
2022/10/08 00:20:32;;;;;;;4.97;2.03;;;;;;;;;;2085217;28;20439;-79
2022/10/08 00:21:55;;;;;;;5.85;1.92;;;;;;;;;;2086703;28;20028;-80
2022/10/08 00:23:15;;;;;;;9.25;1.80;;;;;;;;;;2087467;28;20417;-80
2022/10/08 00:24:34;;;;;;;9.38;2.00;;;;;;;;;;2087002;28;20033;-80
2022/10/08 00:25:53;;;;;;;8.02;2.05;;;;;;;;;;2087360;28;20029;-80
2022/10/08 00:27:12;;;;;;;8.10;1.50;;;;;;;;;;2087066;28;20112;-79
2022/10/08 00:28:35;;;;;;;7.55;2.05;;;;;;;;;;2084904;28;20029;-80
2022/10/08 00:29:54;;;;;;;;;;;;;;;;;;2085652;28;20029;-80
2022/10/08 00:31:15;;;;;;;5.53;1.50;;;;;;;;;;2087733;28;20409;-80
2022/10/08 00:32:34;;;;;;;10.35;2.00;;;;;;;;;;2088771;28;20033;-80
2022/10/08 00:33:54;;;;;;;8.18;1.90;;;;;;;;;;2088549;28;20421;-80
2022/10/08 00:35:13;;;;;;;6.15;1.45;;;;;;;;;;2084079;28;20029;-79
2022/10/08 00:36:33;;;;;;;7.00;1.85;;;;;;;;;;2084624;28;20030;-80
2022/10/08 00:37:52;;;;;;;7.68;1.92;;;;;;;;;;2090573;28;20060;-80
2022/10/08 00:39:12;;;;;;;9.00;2.15;;;;;;;;;;2088053;28;20017;-80
2022/10/08 00:40:39;;;;;;;7.65;2.00;;;;;;;;;;2078522;28;20057;-80
2022/10/08 00:42:01;;;;;;;6.25;1.83;;;;;;;;;;2083919;28;20021;-78
2022/10/08 00:43:35;;;;;;;7.88;1.80;;;;;;;;;;2089169;28;20033;-80
2022/10/08 00:44:56;;;;;;;6.05;1.52;;;;;;;;;;2089805;28;20037;-80
2022/10/08 00:46:17;;;;;;;11.20;1.80;;;;;;;;;;2088473;28;20119;-80
2022/10/08 00:47:41;;;;;;;10.90;2.10;;;;;;;;;;2089525;28;20045;-80
2022/10/08 00:49:03;;;;;;;14.70;2.03;;;;;;;;;;2088862;28;20401;-79
2022/10/08 00:50:41;;;;;;;7.47;1.98;;;;;;;;;;2086507;28;20385;-81
2022/10/08 00:52:00;;;;;;;7.13;2.25;;;;;;;;;;2079178;28;20033;-79
2022/10/08 00:53:20;;;;;;;7.95;2.00;;;;;;;;;;2087328;28;20494;-80
2022/10/08 00:54:39;;;;;;;6.53;1.67;;;;;;;;;;2079169;28;20068;-80
2022/10/08 00:55:58;;;;;;;6.75;1.73;;;;;;;;;;2083592;28;20037;-80
2022/10/08 00:57:18;;;;;;;5.05;1.73;;;;;;;;;;2088727;28;20335;-80
2022/10/08 00:58:38;;;;;;;8.10;2.25;;;;;;;;;;2079716;28;20113;-80
2022/10/08 00:59:58;;;;;;;9.13;1.92;;;;;;;;;;2076622;28;20394;-80
2022/10/08 01:01:17;;;;;;;9.05;2.28;;;;;;;;;;2075712;28;20661;-79
2022/10/08 01:02:36;;;;;;;8.32;1.98;;;;;;;;;;2085035;28;20033;-81
2022/10/08 01:03:56;;;;;;;8.30;2.50;;;;;;;;;;2090040;28;20417;-80
2022/10/08 01:05:16;;;;;;;10.38;2.03;;;;;;;;;;2088397;28;20032;-80
2022/10/08 01:06:35;;;;;;;7.88;1.70;;;;;;;;;;2089385;28;20040;-80
2022/10/08 01:08:08;;;;;;;6.35;1.70;;;;;;;;;;2087724;28;20433;-80
2022/10/08 01:09:32;;;;;;;5.30;1.50;;;;;;;;;;2087429;28;20029;-80
2022/10/08 01:11:14;;;;;;;5.55;1.98;;;;;;;;;;2088361;28;20037;-80
2022/10/08 01:12:36;;;;;;;10.38;2.22;;;;;;;;;;2072692;28;20029;-80
2022/10/08 01:14:01;;;;;;;8.43;1.67;;;;;;;;;;2088044;28;20068;-80
2022/10/08 01:15:27;;;;;;;6.72;1.77;;;;;;;;;;2085357;28;20691;-80
2022/10/08 01:16:57;;;;;;;8.60;1.65;;;;;;;;;;2086406;28;20115;-80
2022/10/08 01:18:16;;;;;;;7.50;1.52;;;;;;;;;;2078978;28;20037;-80
2022/10/08 01:19:38;;;;;;;6.72;1.90;;;;;;;;;;2084093;28;20025;-80
2022/10/08 01:21:04;;;;;;;5.03;1.75;;;;;;;;;;2086192;28;20041;-80
2022/10/08 01:22:29;;;;;;;8.32;1.90;;;;;;;;;;2081907;28;20029;-80
2022/10/08 01:23:57;;;;;;;11.07;1.90;;;;;;;;;;2087653;28;20060;-80
2022/10/08 01:25:34;;;;;;;10.68;2.38;;;;;;;;;;2077617;28;20025;-80
2022/10/08 01:26:59;;;;;;;6.63;1.98;;;;;;;;;;2086976;28;20120;-80
2022/10/08 01:28:21;;;;;;;13.38;2.95;;;;;;;;;;2087517;28;20025;-80
2022/10/08 01:29:43;;;;;;;8.35;2.03;;;;;;;;;;2089847;28;20029;-80
2022/10/08 01:31:02;;;;;;;12.10;2.58;;;;;;;;;;2088078;28;20033;-80
2022/10/08 01:32:25;;;;;;;3.50;1.80;;;;;;;;;;2079692;28;20037;-80
2022/10/08 01:33:46;;;;;;;9.85;1.70;;;;;;;;;;2076546;28;20037;-79
2022/10/08 01:35:12;;;;;;;6.80;1.80;;;;;;;;;;2080115;28;20037;-80
2022/10/08 01:36:35;;;;;;;9.63;2.17;;;;;;;;;;2077352;28;20033;-80
2022/10/08 01:37:56;;;;;;;8.77;1.95;;;;;;;;;;2076057;28;20033;-79
2022/10/08 01:39:16;;;;;;;8.60;2.50;;;;;;;;;;2083857;28;20021;-80
2022/10/08 01:40:36;;;;;;;8.30;1.85;;;;;;;;;;2078916;28;20490;-80
2022/10/08 01:41:55;;;;;;;6.97;2.08;;;;;;;;;;2084965;28;20386;-80
2022/10/08 01:43:17;;;;;;;4.78;1.70;;;;;;;;;;2075992;28;20033;-80
2022/10/08 01:44:40;;;;;;;7.45;1.92;;;;;;;;;;2074909;28;20037;-80
2022/10/08 01:46:02;;;;;;;12.18;2.55;;;;;;;;;;2084326;28;20029;-80
2022/10/08 01:47:26;;;;;;;7.25;1.92;;;;;;;;;;2080257;28;20034;-79
2022/10/08 01:48:48;;;;;;;5.68;2.00;;;;;;;;;;2086726;28;20025;-80
2022/10/08 01:50:27;;;;;;;7.20;1.65;;;;;;;;;;2088543;28;20037;-80
2022/10/08 01:51:50;;;;;;;6.22;2.05;;;;;;;;;;2083798;28;20029;-78
2022/10/08 01:53:14;;;;;;;9.93;2.20;;;;;;;;;;2078515;28;20026;-80
2022/10/08 01:54:34;;;;;;;5.28;1.55;;;;;;;;;;2084008;28;20033;-80
2022/10/08 01:55:54;;;;;;;7.85;2.10;;;;;;;;;;2080109;28;20021;-80
2022/10/08 01:57:13;;;;;;;8.88;2.20;;;;;;;;;;2085033;28;20408;-80
2022/10/08 01:58:40;;;;;;;7.57;2.22;;;;;;;;;;2079327;28;20029;-78
2022/10/08 02:00:11;;;;;;;8.00;2.05;;;;;;;;;;2076105;28;20033;-80
2022/10/08 02:01:39;;;;;;;6.93;1.80;;;;;;;;;;2083401;28;20033;-80
2022/10/08 02:02:58;;;;;;;5.32;1.83;;;;;;;;;;2088908;28;20037;-81
2022/10/08 02:04:34;;;;;;;4.80;1.42;;;;;;;;;;2087855;28;20061;-80
2022/10/08 02:05:53;;;;;;;4.85;1.60;;;;;;;;;;2086778;28;20021;-78
2022/10/08 02:07:17;;;;;;;5.90;1.40;;;;;;;;;;2086584;28;20025;-80
2022/10/08 02:08:36;;;;;;;7.75;2.10;;;;;;;;;;2086714;28;20060;-80
2022/10/08 02:10:05;;;;;;;5.50;1.52;;;;;;;;;;2084735;28;20042;-80
2022/10/08 02:11:24;;;;;;;6.28;1.80;;;;;;;;;;2087459;28;20028;-81
2022/10/08 02:12:43;;;;;;;8.43;2.20;;;;;;;;;;2089177;28;20040;-79
2022/10/08 02:14:04;;;;;;;6.47;1.85;;;;;;;;;;2085914;28;20021;-80
2022/10/08 02:15:34;;;;;;;7.70;2.08;;;;;;;;;;2084805;28;20037;-80
2022/10/08 02:17:13;;;;;;;6.65;2.28;;;;;;;;;;2084774;28;20099;-79
2022/10/08 02:18:46;;;;;;;8.32;2.03;;;;;;;;;;2088972;28;20476;-80
2022/10/08 02:20:17;;;;;;;9.25;1.77;;;;;;;;;;2077725;28;20033;-81
2022/10/08 02:21:38;;;;;;;6.07;2.10;;;;;;;;;;2083321;28;20092;-79
2022/10/08 02:23:17;;;;;;;5.47;1.77;;;;;;;;;;2086853;28;20025;-80
2022/10/08 02:24:39;;;;;;;9.10;1.67;;;;;;;;;;2078157;28;20112;-80
2022/10/08 02:25:59;;;;;;;7.75;1.90;;;;;;;;;;2084126;28;20498;-80
2022/10/08 02:27:21;;;;;;;7.60;1.80;;;;;;;;;;2078740;28;20033;-80
2022/10/08 02:28:42;;;;;;;5.00;1.55;;;;;;;;;;2085891;28;20382;-80
2022/10/08 02:30:08;;;;;;;8.27;1.95;;;;;;;;;;2086406;28;20037;-79
2022/10/08 02:31:30;;;;;;;12.00;2.15;;;;;;;;;;2088262;28;20041;-80
2022/10/08 02:32:53;;;;;;;5.80;1.83;;;;;;;;;;2087584;28;20033;-81
2022/10/08 02:34:51;;;;;;;7.93;1.75;;;;;;;;;;2084139;28;20036;-81
2022/10/08 02:36:11;;;;;;;3.08;1.45;;;;;;;;;;2070149;28;20031;-80
2022/10/08 02:37:33;;;;;;;6.47;1.80;;;;;;;;;;2069781;28;20022;-80
2022/10/08 02:38:54;;;;;;;4.78;1.80;;;;;;;;;;2061113;28;20046;-79
2022/10/08 02:40:14;;;;;;;6.97;1.98;;;;;;;;;;2067693;28;20018;-79
2022/10/08 02:41:39;;;;;;;6.78;1.92;;;;;;;;;;2080056;28;20017;-79
2022/10/08 02:43:00;;;;;;;7.55;2.00;;;;;;;;;;2085648;28;20033;-79
2022/10/08 02:44:22;;;;;;;7.47;1.85;;;;;;;;;;2078284;28;20026;-80
2022/10/08 02:45:45;;;;;;;6.82;1.80;;;;;;;;;;2083739;28;20494;-79
2022/10/08 02:47:04;;;;;;;;;;;;;;;;;;2078715;28;20498;-79
2022/10/08 02:48:27;;;;;;;6.93;1.45;;;;;;;;;;2084170;28;19908;-80
2022/10/08 02:49:52;;;;;;;7.40;2.08;;;;;;;;;;2086980;28;20037;-81
2022/10/08 02:51:12;;;;;;;8.25;1.90;;;;;;;;;;2080946;28;20100;-80
2022/10/08 02:52:35;;;;;;;4.80;2.05;;;;;;;;;;2082241;28;20029;-80
2022/10/08 02:53:55;;;;;;;7.38;1.73;;;;;;;;;;2086149;28;20037;-79
2022/10/08 02:55:26;;;;;;;6.68;1.77;;;;;;;;;;2087960;28;20032;-79
2022/10/08 02:56:49;;;;;;;5.18;1.40;;;;;;;;;;2079376;28;20033;-78
2022/10/08 02:58:09;;;;;;;5.07;1.70;;;;;;;;;;2082221;28;20416;-81
2022/10/08 02:59:28;;;;;;;5.95;1.92;;;;;;;;;;2087288;28;20025;-80
2022/10/08 03:00:54;;;;;;;7.45;1.83;;;;;;;;;;2087943;28;20500;-81
2022/10/08 03:02:26;;;;;;;8.30;1.90;;;;;;;;;;2087362;28;20120;-80
2022/10/08 03:03:52;;;;;;;6.95;1.83;;;;;;;;;;2087544;28;20116;-80
2022/10/08 03:05:14;;;;;;;8.98;1.63;;;;;;;;;;2087266;28;20033;-80
2022/10/08 03:06:34;;;;;;;8.23;1.65;;;;;;;;;;2087325;28;20436;-80
2022/10/08 03:07:54;;;;;;;7.30;1.73;;;;;;;;;;2084034;28;20029;-80
2022/10/08 03:09:14;;;;;;;10.77;2.05;;;;;;;;;;2087719;28;20486;-80
2022/10/08 03:10:35;;;;;;;7.90;2.05;;;;;;;;;;2078932;28;20045;-80
2022/10/08 03:11:55;;;;;;;4.97;1.40;;;;;;;;;;2078826;28;20033;-80
2022/10/08 03:13:14;;;;;;;5.40;1.63;;;;;;;;;;2076203;28;20153;-80
2022/10/08 03:14:34;;;;;;;7.05;2.00;;;;;;;;;;2076167;28;20021;-81
2022/10/08 03:15:53;;;;;;;12.13;1.70;;;;;;;;;;2083879;28;20033;-80
2022/10/08 03:17:13;;;;;;;7.57;1.70;;;;;;;;;;2086730;28;20490;-81
2022/10/08 03:18:32;;;;;;;10.35;1.92;;;;;;;;;;2087291;28;20041;-79
2022/10/08 03:19:53;;;;;;;6.35;2.08;;;;;;;;;;2077317;28;20041;-80
2022/10/08 03:21:12;;;;;;;6.85;1.75;;;;;;;;;;2076328;28;20104;-80
2022/10/08 03:22:32;;;;;;;8.63;1.33;;;;;;;;;;2084117;28;20158;-80
2022/10/08 03:23:51;;;;;;;5.85;1.70;;;;;;;;;;2087942;28;20029;-80
2022/10/08 03:25:10;;;;;;;12.68;1.73;;;;;;;;;;2085689;28;20407;-80
2022/10/08 03:26:29;;;;;;;6.63;1.58;;;;;;;;;;2088113;28;20068;-79
2022/10/08 03:27:49;;;;;;;5.15;1.30;;;;;;;;;;2087284;28;20029;-80
2022/10/08 03:29:08;;;;;;;5.05;1.20;;;;;;;;;;2087485;28;20485;-80
2022/10/08 03:30:27;;;;;;;7.93;1.85;;;;;;;;;;2083233;28;20036;-80
2022/10/08 03:31:47;;;;;;;4.65;1.55;;;;;;;;;;2078535;28;20049;-80
2022/10/08 03:33:06;;;;;;;6.43;1.50;;;;;;;;;;2083640;28;20433;-80
2022/10/08 03:34:25;;;;;;;3.80;1.30;;;;;;;;;;2086764;28;20111;-79
2022/10/08 03:35:44;;;;;;;9.20;1.60;;;;;;;;;;2087457;28;20108;-81
2022/10/08 03:37:03;;;;;;;6.43;1.85;;;;;;;;;;2088247;28;20033;-81
2022/10/08 03:38:22;;;;;;;3.13;1.40;;;;;;;;;;2078450;28;20057;-80
2022/10/08 03:39:44;;;;;;;3.92;1.27;;;;;;;;;;2083837;28;20057;-80
2022/10/08 03:41:03;;;;;;;1.77;1.05;;;;;;;;;;2077046;28;20022;-80
2022/10/08 03:42:22;;;;;;;3.70;1.60;;;;;;;;;;2080683;28;20029;-79
2022/10/08 03:43:41;;;;;;;3.05;1.27;;;;;;;;;;2087854;28;20033;-80
2022/10/08 03:45:01;;;;;;;5.78;1.50;;;;;;;;;;2077044;28;20046;-80
2022/10/08 03:46:19;;;;;;;2.13;1.27;;;;;;;;;;2084034;28;20436;-80
2022/10/08 03:47:39;;;;;;;4.65;1.10;;;;;;;;;;2087374;28;20033;-80
2022/10/08 03:48:57;;;;;;;8.57;1.27;;;;;;;;;;2085597;28;20033;-80
2022/10/08 03:50:17;;;;;;;4.05;1.48;;;;;;;;;;2088335;28;20040;-79
2022/10/08 03:51:37;;;;;;;4.70;1.38;;;;;;;;;;2088550;28;20036;-80
2022/10/08 03:52:55;;;;;;;6.35;1.35;;;;;;;;;;2086427;28;20044;-80
2022/10/08 03:54:14;;;;;;;4.80;1.42;;;;;;;;;;2086174;28;20037;-80
2022/10/08 03:55:34;;;;;;;6.75;2.47;;;;;;;;;;2086906;28;20025;-80
2022/10/08 03:56:53;;;;;;;4.65;1.20;;;;;;;;;;2087967;28;20041;-80
2022/10/08 03:58:12;;;;;;;3.97;1.55;;;;;;;;;;2087503;28;20029;-80
2022/10/08 03:59:31;;;;;;;5.35;1.30;;;;;;;;;;2075280;28;20113;-78
2022/10/08 04:00:57;;;;;;;3.65;1.30;;;;;;;;;;2073887;28;20037;-80
2022/10/08 04:02:16;;;;;;;3.78;1.55;;;;;;;;;;2074663;28;20022;-80
2022/10/08 04:03:35;;;;;;;3.83;1.17;;;;;;;;;;2075011;28;20038;-79
2022/10/08 04:04:53;;;;;;;4.57;1.25;;;;;;;;;;2082664;28;20498;-78
2022/10/08 04:06:13;;;;;;;6.22;1.55;;;;;;;;;;2087953;28;20029;-79
2022/10/08 04:07:32;;;;;;;5.68;1.15;;;;;;;;;;2079636;28;20025;-80
2022/10/08 04:08:51;;;;;;;3.60;1.15;;;;;;;;;;2085346;28;20514;-79
2022/10/08 04:10:09;;;;;;;4.57;1.10;;;;;;;;;;2088352;28;20115;-80
2022/10/08 04:11:29;;;;;;;2.88;1.00;;;;;;;;;;2089078;28;20029;-80
2022/10/08 04:12:48;;;;;;;3.20;1.20;;;;;;;;;;2086363;28;20033;-80
2022/10/08 04:14:07;;;;;;;2.78;1.05;;;;;;;;;;2079200;28;20506;-80
2022/10/08 04:15:25;;;;;;;3.40;1.38;;;;;;;;;;2082507;28;20501;-80
2022/10/08 04:16:44;;;;;;;4.75;1.27;;;;;;;;;;2089044;28;20033;-80
2022/10/08 04:18:03;;;;;;;3.42;1.20;;;;;;;;;;2089444;28;20087;-80
2022/10/08 04:19:22;;;;;;;2.47;0.93;;;;;;;;;;2079344;28;20477;-79
2022/10/08 04:20:42;;;;;;;5.05;1.05;;;;;;;;;;2084480;28;20480;-80
2022/10/08 04:22:01;;;;;;;4.55;1.20;;;;;;;;;;2088630;28;20033;-79
2022/10/08 04:23:19;;;;;;;6.72;1.25;;;;;;;;;;2089481;28;20421;-80
2022/10/08 04:24:38;;;;;;;5.65;1.30;;;;;;;;;;2087826;28;20108;-79
2022/10/08 04:25:58;;;;;;;1.92;1.00;;;;;;;;;;2089202;28;20028;-80
2022/10/08 04:27:17;;;;;;;3.60;1.05;;;;;;;;;;2087938;28;20389;-80
2022/10/08 04:28:36;;;;;;;3.88;1.23;;;;;;;;;;2079172;28;20069;-80
2022/10/08 04:29:55;;;;;;;5.35;1.40;;;;;;;;;;2077904;28;20042;-81
2022/10/08 04:31:16;;;;;;;2.80;1.00;;;;;;;;;;2086523;28;20025;-81
2022/10/08 04:32:35;;;;;;;2.58;0.88;;;;;;;;;;2088152;28;20021;-81
2022/10/08 04:33:54;;;;;;;2.72;1.08;;;;;;;;;;2079588;28;20021;-81
2022/10/08 04:35:12;;;;;;;3.45;0.80;;;;;;;;;;2077802;28;20033;-81
2022/10/08 04:36:31;;;;;;;3.63;1.42;;;;;;;;;;2085015;28;20505;-81
2022/10/08 04:37:50;;;;;;;2.65;1.05;;;;;;;;;;2087197;28;20794;-81
2022/10/08 04:39:09;;;;;;;3.53;1.10;;;;;;;;;;2085594;28;20021;-80
2022/10/08 04:40:28;;;;;;;1.23;1.02;;;;;;;;;;2089359;28;20037;-81
2022/10/08 04:41:46;;;;;;;2.05;1.00;;;;;;;;;;2088933;28;20625;-81
2022/10/08 04:43:05;;;;;;;4.13;1.33;;;;;;;;;;2087852;28;20017;-80
2022/10/08 04:44:24;;;;;;;3.20;0.93;;;;;;;;;;2084055;28;20029;-81
2022/10/08 04:45:44;;;;;;;2.53;1.33;;;;;;;;;;2079072;28;20116;-79
2022/10/08 04:47:03;;;;;;;2.22;0.80;;;;;;;;;;2084967;28;20067;-80
2022/10/08 04:48:22;;;;;;;2.53;0.68;;;;;;;;;;2078782;28;20044;-81
2022/10/08 04:49:41;;;;;;;2.42;0.82;;;;;;;;;;2084718;28;20036;-80
2022/10/08 04:51:01;;;;;;;2.97;0.98;;;;;;;;;;2088820;28;20028;-81
2022/10/08 04:52:20;;;;;;;2.75;0.90;;;;;;;;;;2080464;28;20486;-81
2022/10/08 04:53:39;;;;;;;3.65;0.85;;;;;;;;;;2084344;28;20041;-80
2022/10/08 04:54:57;;;;;;;0.95;0.88;;;;;;;;;;2078384;28;20037;-81
2022/10/08 04:56:21;;;;;;;1.95;0.85;;;;;;;;;;2074773;28;20041;-80
2022/10/08 04:57:40;;;;;;;1.65;1.02;;;;;;;;;;2076672;28;20410;-80
2022/10/08 04:58:59;;;;;;;3.55;0.77;;;;;;;;;;2077724;28;20033;-80
2022/10/08 05:00:18;;;;;;;2.05;0.80;;;;;;;;;;2084604;28;20502;-80
2022/10/08 05:01:37;;;;;;;1.48;0.80;;;;;;;;;;2089120;28;20052;-79
2022/10/08 05:02:55;;;;;;;2.30;0.82;;;;;;;;;;2088414;28;20024;-80
2022/10/08 05:04:14;;;;;;;2.53;1.00;;;;;;;;;;2079024;28;20029;-81
2022/10/08 05:05:37;;;;;;;1.48;0.80;;;;;;;;;;2084496;28;20402;-80
2022/10/08 05:06:56;;;;;;;1.58;0.80;;;;;;;;;;2077524;28;20486;-79
2022/10/08 05:08:15;;;;;;;2.30;0.90;;;;;;;;;;2072803;28;20045;-80
2022/10/08 05:09:34;;;;;;;3.80;1.02;;;;;;;;;;2084700;28;20060;-79
2022/10/08 05:10:53;;;;;;;3.10;0.90;;;;;;;;;;2081541;28;20041;-80
2022/10/08 05:12:11;;;;;;;3.20;0.85;;;;;;;;;;2075827;28;20034;-80
2022/10/08 05:13:30;;;;;;;5.05;1.00;;;;;;;;;;2083613;28;20032;-79
2022/10/08 05:14:49;;;;;;;3.50;1.10;;;;;;;;;;2088809;28;20051;-79
2022/10/08 05:16:10;;;;;;;1.88;0.75;;;;;;;;;;2088729;28;20417;-79
2022/10/08 05:17:29;;;;;;;2.00;0.80;;;;;;;;;;2087075;28;20659;-80
2022/10/08 05:18:49;;;;;;;1.33;0.70;;;;;;;;;;2085429;28;20033;-79
2022/10/08 05:20:08;;;;;;;2.22;1.00;;;;;;;;;;2085836;28;20481;-80
2022/10/08 05:21:28;;;;;;;5.43;1.15;;;;;;;;;;2083959;28;20033;-80
2022/10/08 05:22:47;;;;;;;1.50;0.90;;;;;;;;;;2088603;28;20033;-80
2022/10/08 05:24:07;;;;;;;2.50;1.05;;;;;;;;;;2086383;28;20476;-79
2022/10/08 05:25:30;;;;;;;2.38;0.73;;;;;;;;;;2079047;28;20025;-79
2022/10/08 05:26:51;;;;;;;1.33;0.73;;;;;;;;;;2085724;28;20044;-80
2022/10/08 05:28:09;;;;;;;1.35;0.80;;;;;;;;;;2088116;28;20045;-80
2022/10/08 05:29:29;;;;;;;2.90;0.93;;;;;;;;;;2087297;28;20449;-81
2022/10/08 05:30:48;;;;;;;2.30;1.00;;;;;;;;;;2087431;28;20432;-81
2022/10/08 05:32:07;;;;;;;2.38;1.00;;;;;;;;;;2080043;28;20041;-82
2022/10/08 05:33:26;;;;;;;1.85;0.80;;;;;;;;;;2085306;28;20424;-80
2022/10/08 05:34:45;;;;;;;2.05;0.70;;;;;;;;;;2078737;28;20413;-81
2022/10/08 05:36:05;;;;;;;0.95;0.85;;;;;;;;;;2085615;28;20421;-81
2022/10/08 05:37:24;;;;;;;1.55;0.90;;;;;;;;;;2088957;28;20033;-81
2022/10/08 05:38:44;;;;;;;1.45;1.23;;;;;;;;;;2080009;28;20021;-81
2022/10/08 05:40:03;;;;;;;2.15;0.75;;;;;;;;;;2074478;28;20104;-82
2022/10/08 05:41:23;;;;;;;4.07;0.82;;;;;;;;;;2082206;28;20045;-81
2022/10/08 05:42:42;;;;;;;3.33;1.17;;;;;;;;;;2087342;28;20032;-79
2022/10/08 05:44:02;;;;;;;1.85;0.85;;;;;;;;;;2088597;28;20037;-81
2022/10/08 05:45:21;;;;;;;1.92;0.90;;;;;;;;;;2086157;28;20045;-81
2022/10/08 05:46:40;;;;;;;3.28;0.90;;;;;;;;;;2085366;28;20092;-81
2022/10/08 05:47:59;;;;;;;1.40;0.70;;;;;;;;;;2073133;28;20034;-80
2022/10/08 05:49:19;;;;;;;1.02;0.68;;;;;;;;;;2084845;28;20033;-81
2022/10/08 05:50:38;;;;;;;1.50;0.80;;;;;;;;;;2086655;28;20037;-80
2022/10/08 05:51:57;;;;;;;1.58;0.88;;;;;;;;;;2088624;28;20052;-81
2022/10/08 05:53:16;;;;;;;2.90;1.00;;;;;;;;;;2078689;28;20419;-81
2022/10/08 05:54:35;;;;;;;2.90;0.90;;;;;;;;;;2083504;28;20033;-80
2022/10/08 05:56:00;;;;;;;2.33;1.10;;;;;;;;;;2087896;28;20120;-80
2022/10/08 05:57:19;;;;;;;4.65;1.33;;;;;;;;;;2080557;28;20514;-81
2022/10/08 05:58:39;;;;;;;1.90;1.17;;;;;;;;;;2077739;28;20112;-81
2022/10/08 05:59:58;;;;;;;2.08;0.70;;;;;;;;;;2073124;28;20494;-81
2022/10/08 06:01:19;;;;;;;2.58;0.68;;;;;;;;;;2082504;28;20033;-80
2022/10/08 06:02:38;;;;;;;2.28;0.70;;;;;;;;;;2079114;28;20025;-79
2022/10/08 06:03:58;;;;;;;2.58;0.82;;;;;;;;;;2082671;28;20037;-80
2022/10/08 06:05:17;;;;;;;2.17;0.90;;;;;;;;;;2086934;28;20021;-80
2022/10/08 06:06:37;;;;;;;2.05;1.05;;;;;;;;;;2076021;28;20037;-81
2022/10/08 06:07:58;;;;;;;1.42;0.70;;;;;;;;;;2076720;28;20076;-81
2022/10/08 06:09:18;;;;;;;1.88;0.85;;;;;;;;;;2083300;28;20121;-81
2022/10/08 06:10:37;;;;;;;1.48;1.00;;;;;;;;;;2087540;28;20041;-82
2022/10/08 06:11:56;;;;;;;2.55;0.98;;;;;;;;;;2087194;28;20108;-82
2022/10/08 06:13:15;;;;;;;2.00;0.80;;;;;;;;;;2086142;28;20032;-82
2022/10/08 06:14:35;;;;;;;3.65;0.85;;;;;;;;;;2080228;28;20116;-81
2022/10/08 06:16:01;;;;;;;1.60;0.93;;;;;;;;;;2086535;28;20029;-81
2022/10/08 06:17:21;;;;;;;2.53;0.80;;;;;;;;;;2078669;28;20057;-82
2022/10/08 06:18:41;;;;;;;0.95;0.80;;;;;;;;;;2084119;28;20061;-80
2022/10/08 06:20:00;;;;;;;1.40;0.82;;;;;;;;;;2075795;28;20041;-81
2022/10/08 06:21:20;;;;;;;1.88;0.80;;;;;;;;;;2082834;28;20025;-81
2022/10/08 06:22:39;;;;;;;1.08;0.75;;;;;;;;;;2086851;28;20021;-81
2022/10/08 06:24:00;;;;;;;3.80;0.70;;;;;;;;;;2079165;28;20026;-82
2022/10/08 06:25:19;;;;;;;2.25;1.10;;;;;;;;;;2084849;28;20025;-82
2022/10/08 06:26:39;;;;;;;2.47;0.80;;;;;;;;;;2078876;28;20033;-80
2022/10/08 06:27:58;;;;;;;2.00;0.80;;;;;;;;;;2076818;28;20159;-82
2022/10/08 06:29:17;;;;;;;1.02;0.85;;;;;;;;;;2073399;28;20026;-81
2022/10/08 06:30:37;;;;;;;3.00;0.90;;;;;;;;;;2081376;28;20029;-81
2022/10/08 06:31:56;;;;;;;3.33;0.90;;;;;;;;;;2086315;28;20064;-81
2022/10/08 06:33:15;;;;;;;1.73;0.73;;;;;;;;;;2086260;28;20313;-81
2022/10/08 06:34:34;;;;;;;2.95;0.95;;;;;;;;;;2088165;28;20037;-81
2022/10/08 06:35:53;;;;;;;3.10;0.70;;;;;;;;;;2087298;28;20490;-81
2022/10/08 06:37:12;;;;;;;1.60;0.60;;;;;;;;;;2085123;28;20024;-82
2022/10/08 06:38:32;;;;;;;3.95;0.70;;;;;;;;;;2078869;28;20499;-82
2022/10/08 06:39:52;;;;;;;2.50;0.75;;;;;;;;;;2081991;28;20045;-83
2022/10/08 06:41:10;;;;;;;2.28;0.70;;;;;;;;;;2087033;28;20021;-82
2022/10/08 06:42:29;;;;;;;1.50;0.68;;;;;;;;;;2084818;28;20029;-81
2022/10/08 06:43:48;;;;;;;1.10;0.82;;;;;;;;;;2086738;28;20025;-82
2022/10/08 06:45:08;;;;;;;1.17;0.60;;;;;;;;;;2044822;28;1170455;-83
2022/10/08 06:46:29;;;;;;;2.08;1.00;;;;;;;;;;2079761;28;20629;-84
2022/10/08 06:47:49;;;;;;;1.65;0.77;;;;;;;;;;2075795;28;20104;-83
2022/10/08 06:49:08;;;;;;;1.40;0.65;;;;;;;;;;2082976;28;20498;-80
2022/10/08 06:50:27;;;;;;;1.10;0.80;;;;;;;;;;2083452;28;20072;-82
2022/10/08 06:51:46;;;;;;;1.83;0.85;;;;;;;;;;2086839;28;20485;-80
2022/10/08 06:53:06;;;;;;;1.92;0.70;;;;;;;;;;2076443;28;20410;-80
2022/10/08 06:54:26;;;;;;;2.70;0.80;;;;;;;;;;2074130;28;20037;-82
2022/10/08 06:55:45;;;;;;;1.25;0.70;;;;;;;;;;2074092;28;20081;-82
2022/10/08 06:57:04;;;;;;;1.63;0.63;;;;;;;;;;2082833;28;20036;-79
2022/10/08 06:58:23;;;;;;;1.98;0.90;;;;;;;;;;2079312;28;20621;-80
2022/10/08 06:59:42;;;;;;;3.30;0.90;;;;;;;;;;2075956;28;20453;-80
2022/10/08 07:01:02;;;;;;;2.00;1.02;;;;;;;;;;2076971;28;20022;-81
2022/10/08 07:02:21;;;;;;;5.00;0.60;;;;;;;;;;2085347;28;20033;-79
2022/10/08 07:03:40;;;;;;;1.77;0.50;;;;;;;;;;2086174;28;20033;-79
2022/10/08 07:04:59;;;;;;;2.42;0.88;;;;;;;;;;2087591;28;20452;-79
2022/10/08 07:06:19;;;;;;;2.00;0.70;;;;;;;;;;2081280;28;20033;-81
2022/10/08 07:07:38;;;;;;;2.75;0.75;;;;;;;;;;2088507;28;20036;-78
2022/10/08 07:08:58;;;;;;;1.58;0.85;;;;;;;;;;2078969;28;20037;-78
2022/10/08 07:10:17;;;;;;;1.02;0.63;;;;;;;;;;2075025;28;20033;-79
2022/10/08 07:11:37;;;;;;;1.25;0.80;;;;;;;;;;2082008;28;20029;-79
2022/10/08 07:12:56;;;;;;;1.65;0.70;;;;;;;;;;2077471;28;20065;-79
2022/10/08 07:14:15;;;;;;;2.40;0.95;;;;;;;;;;2082125;28;20036;-79
2022/10/08 07:15:34;;;;;;;5.22;1.23;;;;;;;;;;2086580;28;20029;-80
2022/10/08 07:16:53;;;;;;;2.05;0.65;;;;;;;;;;2076811;28;20033;-79
2022/10/08 07:18:12;;;;;;;3.17;0.70;;;;;;;;;;2073434;28;20447;-80
2022/10/08 07:19:31;;;;;;;2.25;0.75;;;;;;;;;;2082495;28;20033;-80
2022/10/08 07:20:54;;;;;;;3.67;1.08;;;;;;;;;;2087957;28;20051;-81
2022/10/08 07:22:13;;;;;;;3.00;1.15;;;;;;;;;;2085467;28;20033;-81
2022/10/08 07:23:32;;;;;;;3.47;0.70;;;;;;;;;;2077017;28;20482;-81
2022/10/08 07:24:51;;;;;;;2.63;0.73;;;;;;;;;;2083604;28;20123;-80
2022/10/08 07:26:13;;;;;;;4.70;1.02;;;;;;;;;;2086150;28;20054;-78
2022/10/08 07:27:32;;;;;;;3.10;0.70;;;;;;;;;;2086151;28;20111;-79
2022/10/08 07:28:52;;;;;;;2.05;0.57;;;;;;;;;;2085221;28;20037;-81
2022/10/08 07:30:11;;;;;;;2.00;0.80;;;;;;;;;;2083951;28;20036;-78
2022/10/08 07:31:31;;;;;;;4.03;0.90;;;;;;;;;;2079370;28;20013;-80
2022/10/08 07:32:53;;;;;;;4.32;0.80;;;;;;;;;;2084566;28;20100;-80
2022/10/08 07:34:12;;;;;;;4.03;1.23;;;;;;;;;;2086037;28;20065;-80
2022/10/08 07:35:32;;;;;;;3.83;0.95;;;;;;;;;;2085722;28;20033;-77
2022/10/08 07:36:51;;;;;;;3.10;0.77;;;;;;;;;;2084415;28;20033;-78
2022/10/08 07:38:10;;;;;;;2.47;0.80;;;;;;;;;;2077005;28;20435;-77
2022/10/08 07:39:29;;;;;;;3.13;0.70;;;;;;;;;;2085212;28;20044;-78
2022/10/08 07:40:49;;;;;;;4.63;1.10;;;;;;;;;;2084958;28;20041;-79
2022/10/08 07:42:08;;;;;;;4.53;0.85;;;;;;;;;;2082783;28;20033;-80
2022/10/08 07:43:27;;;;;;;5.55;1.23;;;;;;;;;;2086922;28;20518;-79
2022/10/08 07:44:46;;;;;;;5.70;1.05;;;;;;;;;;2086151;28;20029;-77
2022/10/08 07:46:06;;;;;;;2.92;0.90;;;;;;;;;;2077575;28;20124;-80
2022/10/08 07:47:25;;;;;;;5.65;0.82;;;;;;;;;;2084368;28;20034;-80
2022/10/08 07:48:44;;;;;;;5.90;1.55;;;;;;;;;;2085302;28;20528;-80
2022/10/08 07:50:03;;;;;;;4.00;1.00;;;;;;;;;;2082419;28;20017;-81
2022/10/08 07:51:22;;;;;;;5.00;1.02;;;;;;;;;;2087475;28;20486;-79
2022/10/08 07:52:41;;;;;;;3.35;1.13;;;;;;;;;;2078752;28;20120;-80
2022/10/08 07:54:01;;;;;;;5.57;1.25;;;;;;;;;;2084226;28;20029;-80
2022/10/08 07:55:20;;;;;;;3.65;1.00;;;;;;;;;;2078542;28;20037;-80
2022/10/08 07:56:40;;;;;;;6.45;1.48;;;;;;;;;;2071959;28;20163;-83
2022/10/08 07:57:59;;;;;;;5.03;1.20;;;;;;;;;;2083251;28;20056;-81
2022/10/08 07:59:18;;;;;;;4.57;1.20;;;;;;;;;;2085882;28;20025;-80
2022/10/08 08:00:40;;;;;;;12.70;1.20;;;;;;;;;;2087056;28;20036;-80
2022/10/08 08:01:59;;;;;;;4.63;1.63;;;;;;;;;;2078365;28;20049;-79
2022/10/08 08:03:17;;;;;;;7.60;1.48;;;;;;;;;;2083990;28;20037;-80
2022/10/08 08:04:36;;;;;;;7.70;1.52;;;;;;;;;;2079130;28;20029;-79